Terminal Aerodrome Forecast
Issued by NWS Shreveport, LA

Home | Current Version | Previous Version | Text Only | Print | Product List | Glossary On
Versions: 1 2 3 4 5 6 7 8 9 10 11 12
874
FTUS44 KSHV 031149
TAFELD
TAF
KELD 031149Z 0312/0412 08005KT P6SM -RA SCT015 SCT060 BKN110
      TEMPO 0314/0318 08012KT 5SM RA BKN015 OVC060
     FM031800 07012KT 5SM RA BR OVC010
     FM040300 06010KT 4SM -RA OVC007=

USA.gov is the U.S. government's official web portal to all federal, state and local government web resources and services.